sensor_id;sensor_type;location;lat;lon;timestamp;pressure;altitude;pressure_sealevel;temperature;humidity
51617;BME280;37697;52.588;13.394;2023-08-20T00:03:22;101321.27;;;22.74;88.76
51617;BME280;37697;52.588;13.394;2023-08-20T00:08:27;101318.64;;;22.75;88.87
51617;BME280;37697;52.588;13.394;2023-08-20T00:13:33;101318.84;;;22.73;88.89
51617;BME280;37697;52.588;13.394;2023-08-20T00:18:39;101324.86;;;22.74;89.02
51617;BME280;37697;52.588;13.394;2023-08-20T00:23:45;101331.33;;;22.71;89.17
51617;BME280;37697;52.588;13.394;2023-08-20T00:28:51;101334.45;;;22.67;89.32
51617;BME280;37697;52.588;13.394;2023-08-20T00:33:56;101342.38;;;22.62;89.59
51617;BME280;37697;52.588;13.394;2023-08-20T00:39:11;101347.63;;;22.60;89.24
51617;BME280;37697;52.588;13.394;2023-08-20T00:44:17;101344.41;;;22.64;89.30
51617;BME280;37697;52.588;13.394;2023-08-20T00:49:22;101349.92;;;22.63;89.41
51617;BME280;37697;52.588;13.394;2023-08-20T00:54:28;101344.18;;;22.60;89.39
51617;BME280;37697;52.588;13.394;2023-08-20T00:59:34;101346.52;;;22.56;89.28
51617;BME280;37697;52.588;13.394;2023-08-20T01:04:39;101359.30;;;22.50;89.46
51617;BME280;37697;52.588;13.394;2023-08-20T01:09:53;101364.27;;;22.42;89.74
51617;BME280;37697;52.588;13.394;2023-08-20T01:15:02;101368.79;;;22.36;89.94
51617;BME280;37697;52.588;13.394;2023-08-20T01:20:09;101373.86;;;22.33;90.32
51617;BME280;37697;52.588;13.394;2023-08-20T01:25:28;101374.05;;;22.34;91.03
51617;BME280;37697;52.588;13.394;2023-08-20T01:30:35;101378.35;;;22.37;91.54
51617;BME280;37697;52.588;13.394;2023-08-20T01:35:42;101376.09;;;22.40;91.88
51617;BME280;37697;52.588;13.394;2023-08-20T01:40:48;101379.88;;;22.45;92.26
51617;BME280;37697;52.588;13.394;2023-08-20T01:45:53;101377.88;;;22.45;92.69
51617;BME280;37697;52.588;13.394;2023-08-20T01:50:59;101385.86;;;22.44;92.66
51617;BME280;37697;52.588;13.394;2023-08-20T01:56:04;101388.37;;;22.44;93.17
51617;BME280;37697;52.588;13.394;2023-08-20T02:01:13;101389.84;;;22.46;93.47
51617;BME280;37697;52.588;13.394;2023-08-20T02:06:19;101394.71;;;22.45;93.65
51617;BME280;37697;52.588;13.394;2023-08-20T02:11:24;101398.25;;;22.42;93.63
51617;BME280;37697;52.588;13.394;2023-08-20T02:16:30;101401.76;;;22.37;93.95
51617;BME280;37697;52.588;13.394;2023-08-20T02:21:35;101407.70;;;22.34;94.44
51617;BME280;37697;52.588;13.394;2023-08-20T02:26:41;101411.86;;;22.34;94.70
51617;BME280;37697;52.588;13.394;2023-08-20T02:31:46;101416.91;;;22.33;95.11
51617;BME280;37697;52.588;13.394;2023-08-20T02:36:51;101420.41;;;22.31;95.48
51617;BME280;37697;52.588;13.394;2023-08-20T02:41:57;101426.79;;;22.30;95.65
51617;BME280;37697;52.588;13.394;2023-08-20T02:47:03;101429.23;;;22.28;95.92
51617;BME280;37697;52.588;13.394;2023-08-20T02:52:08;101434.13;;;22.26;96.15
51617;BME280;37697;52.588;13.394;2023-08-20T02:57:14;101427.97;;;22.24;96.32
51617;BME280;37697;52.588;13.394;2023-08-20T03:02:19;101430.60;;;22.23;96.99
51617;BME280;37697;52.588;13.394;2023-08-20T03:07:24;101437.08;;;22.22;97.21
51617;BME280;37697;52.588;13.394;2023-08-20T03:12:30;101438.13;;;22.19;97.39
51617;BME280;37697;52.588;13.394;2023-08-20T03:17:35;101441.38;;;22.14;97.50
51617;BME280;37697;52.588;13.394;2023-08-20T03:22:41;101455.08;;;22.10;97.84
51617;BME280;37697;52.588;13.394;2023-08-20T03:27:46;101463.98;;;22.07;98.02
51617;BME280;37697;52.588;13.394;2023-08-20T03:32:52;101463.17;;;22.03;98.30
51617;BME280;37697;52.588;13.394;2023-08-20T03:37:57;101462.73;;;21.98;98.49
51617;BME280;37697;52.588;13.394;2023-08-20T03:43:03;101462.52;;;21.96;98.68
51617;BME280;37697;52.588;13.394;2023-08-20T03:48:08;101465.62;;;21.91;98.84
51617;BME280;37697;52.588;13.394;2023-08-20T03:53:14;101461.51;;;21.87;98.79
51617;BME280;37697;52.588;13.394;2023-08-20T03:58:19;101466.36;;;21.83;98.94
51617;BME280;37697;52.588;13.394;2023-08-20T04:03:25;101486.41;;;21.78;99.10
51617;BME280;37697;52.588;13.394;2023-08-20T04:08:30;101488.67;;;21.75;99.77
51617;BME280;37697;52.588;13.394;2023-08-20T04:13:36;101487.53;;;21.71;99.89
51617;BME280;37697;52.588;13.394;2023-08-20T04:18:41;101486.73;;;21.68;99.93
51617;BME280;37697;52.588;13.394;2023-08-20T04:23:46;101484.44;;;21.62;100.00
51617;BME280;37697;52.588;13.394;2023-08-20T04:28:52;101484.30;;;21.60;100.00
51617;BME280;37697;52.588;13.394;2023-08-20T04:33:57;101491.56;;;21.62;100.00
51617;BME280;37697;52.588;13.394;2023-08-20T04:39:03;101496.33;;;21.64;100.00
51617;BME280;37697;52.588;13.394;2023-08-20T04:44:09;101491.80;;;21.65;100.00
51617;BME280;37697;52.588;13.394;2023-08-20T04:49:15;101493.00;;;21.69;100.00
51617;BME280;37697;52.588;13.394;2023-08-20T04:54:20;101499.70;;;21.70;100.00
51617;BME280;37697;52.588;13.394;2023-08-20T04:59:26;101502.74;;;21.74;100.00
51617;BME280;37697;52.588;13.394;2023-08-20T05:04:31;101500.05;;;21.82;100.00
51617;BME280;37697;52.588;13.394;2023-08-20T05:09:37;101506.11;;;21.89;100.00
51617;BME280;37697;52.588;13.394;2023-08-20T05:14:42;101521.81;;;21.97;100.00
51617;BME280;37697;52.588;13.394;2023-08-20T05:19:48;101525.72;;;21.99;100.00
51617;BME280;37697;52.588;13.394;2023-08-20T05:24:53;101527.06;;;22.04;100.00
51617;BME280;37697;52.588;13.394;2023-08-20T05:29:59;101530.36;;;22.09;100.00
51617;BME280;37697;52.588;13.394;2023-08-20T05:35:05;101527.23;;;22.16;100.00
51617;BME280;37697;52.588;13.394;2023-08-20T05:40:13;101540.95;;;22.28;100.00
51617;BME280;37697;52.588;13.394;2023-08-20T05:45:18;101550.77;;;22.36;100.00
51617;BME280;37697;52.588;13.394;2023-08-20T05:50:24;101559.69;;;22.44;100.00
51617;BME280;37697;52.588;13.394;2023-08-20T05:55:30;101564.83;;;22.51;100.00
51617;BME280;37697;52.588;13.394;2023-08-20T06:00:35;101563.82;;;22.52;100.00
51617;BME280;37697;52.588;13.394;2023-08-20T06:05:40;101561.14;;;22.61;100.00
51617;BME280;37697;52.588;13.394;2023-08-20T06:10:46;101562.33;;;22.65;100.00
51617;BME280;37697;52.588;13.394;2023-08-20T06:15:51;101568.13;;;22.63;100.00
51617;BME280;37697;52.588;13.394;2023-08-20T06:20:57;101555.01;;;22.64;100.00
51617;BME280;37697;52.588;13.394;2023-08-20T06:26:02;101561.55;;;22.73;100.00
51617;BME280;37697;52.588;13.394;2023-08-20T06:31:07;101575.50;;;22.81;100.00
51617;BME280;37697;52.588;13.394;2023-08-20T06:36:13;101571.98;;;22.91;100.00
51617;BME280;37697;52.588;13.394;2023-08-20T06:41:18;101583.45;;;23.05;100.00
51617;BME280;37697;52.588;13.394;2023-08-20T06:46:24;101597.40;;;23.20;99.98
51617;BME280;37697;52.588;13.394;2023-08-20T06:51:29;101599.92;;;23.25;99.75
51617;BME280;37697;52.588;13.394;2023-08-20T06:56:34;101598.54;;;23.20;99.08
51617;BME280;37697;52.588;13.394;2023-08-20T07:01:40;101598.12;;;23.15;98.92
51617;BME280;37697;52.588;13.394;2023-08-20T07:06:45;101602.84;;;23.15;98.62
51617;BME280;37697;52.588;13.394;2023-08-20T07:11:51;101615.38;;;23.20;98.72
51617;BME280;37697;52.588;13.394;2023-08-20T07:16:57;101621.30;;;23.26;98.26
51617;BME280;37697;52.588;13.394;2023-08-20T07:22:02;101628.14;;;23.35;98.01
51617;BME280;37697;52.588;13.394;2023-08-20T07:27:07;101636.38;;;23.56;97.86
51617;BME280;37697;52.588;13.394;2023-08-20T07:32:17;101640.86;;;23.60;97.02
51617;BME280;37697;52.588;13.394;2023-08-20T07:37:23;101637.48;;;23.52;96.78
51617;BME280;37697;52.588;13.394;2023-08-20T07:42:28;101650.65;;;23.43;96.17
51617;BME280;37697;52.588;13.394;2023-08-20T07:47:33;101649.75;;;23.43;96.02
51617;BME280;37697;52.588;13.394;2023-08-20T07:52:39;101648.05;;;23.39;95.57
51617;BME280;37697;52.588;13.394;2023-08-20T07:57:45;101657.94;;;23.35;95.56
51617;BME280;37697;52.588;13.394;2023-08-20T08:02:54;101660.45;;;23.37;95.42
51617;BME280;37697;52.588;13.394;2023-08-20T08:08:00;101662.17;;;23.38;95.22
51617;BME280;37697;52.588;13.394;2023-08-20T08:13:05;101660.44;;;23.40;94.99
51617;BME280;37697;52.588;13.394;2023-08-20T08:18:11;101664.79;;;23.64;95.28
51617;BME280;37697;52.588;13.394;2023-08-20T08:23:17;101668.13;;;23.78;94.28
51617;BME280;37697;52.588;13.394;2023-08-20T08:28:22;101665.13;;;23.93;94.36
51617;BME280;37697;52.588;13.394;2023-08-20T08:33:28;101666.23;;;24.18;94.03
51617;BME280;37697;52.588;13.394;2023-08-20T08:38:33;101664.09;;;24.42;93.24
51617;BME280;37697;52.588;13.394;2023-08-20T08:43:39;101669.33;;;24.71;92.92
51617;BME280;37697;52.588;13.394;2023-08-20T08:48:46;101663.41;;;25.07;92.21
51617;BME280;37697;52.588;13.394;2023-08-20T08:53:53;101652.64;;;25.02;90.17
51617;BME280;37697;52.588;13.394;2023-08-20T08:58:58;101656.80;;;25.00;90.08
51617;BME280;37697;52.588;13.394;2023-08-20T09:04:04;101650.02;;;25.05;89.72
51617;BME280;37697;52.588;13.394;2023-08-20T09:09:09;101647.73;;;25.03;89.07
51617;BME280;37697;52.588;13.394;2023-08-20T09:14:23;101647.73;;;25.14;88.88
51617;BME280;37697;52.588;13.394;2023-08-20T09:19:35;101647.33;;;25.50;88.96
51617;BME280;37697;52.588;13.394;2023-08-20T09:24:46;101652.92;;;25.73;87.39
51617;BME280;37697;52.588;13.394;2023-08-20T09:29:54;101653.69;;;25.84;85.24
51617;BME280;37697;52.588;13.394;2023-08-20T09:34:59;101647.30;;;26.13;84.98
51617;BME280;37697;52.588;13.394;2023-08-20T09:40:06;101634.39;;;26.50;84.43
51617;BME280;37697;52.588;13.394;2023-08-20T09:45:12;101639.90;;;26.71;82.60
51617;BME280;37697;52.588;13.394;2023-08-20T09:50:19;101655.79;;;26.82;81.73
51617;BME280;37697;52.588;13.394;2023-08-20T09:55:32;101654.11;;;26.99;79.60
51617;BME280;37697;52.588;13.394;2023-08-20T10:00:41;101662.52;;;27.01;77.55
51617;BME280;37697;52.588;13.394;2023-08-20T10:05:48;101667.67;;;27.10;77.05
51617;BME280;37697;52.588;13.394;2023-08-20T10:10:53;101672.86;;;27.26;75.99
51617;BME280;37697;52.588;13.394;2023-08-20T10:15:59;101670.01;;;27.36;75.30
51617;BME280;37697;52.588;13.394;2023-08-20T10:21:06;101665.63;;;27.53;74.80
51617;BME280;37697;52.588;13.394;2023-08-20T10:26:15;101655.55;;;27.60;72.99
51617;BME280;37697;52.588;13.394;2023-08-20T10:31:26;101646.45;;;27.74;72.77
51617;BME280;37697;52.588;13.394;2023-08-20T10:36:42;101638.79;;;27.76;70.94
51617;BME280;37697;52.588;13.394;2023-08-20T10:41:48;101637.98;;;27.80;70.12
51617;BME280;37697;52.588;13.394;2023-08-20T10:46:53;101639.80;;;27.91;69.76
51617;BME280;37697;52.588;13.394;2023-08-20T10:52:03;101638.70;;;28.02;68.93
51617;BME280;37697;52.588;13.394;2023-08-20T10:57:08;101643.25;;;28.15;68.33
51617;BME280;37697;52.588;13.394;2023-08-20T11:02:16;101643.73;;;28.30;67.40
51617;BME280;37697;52.588;13.394;2023-08-20T11:07:23;101644.94;;;28.41;66.59
51617;BME280;37697;52.588;13.394;2023-08-20T11:12:31;101646.33;;;28.60;65.90
51617;BME280;37697;52.588;13.394;2023-08-20T11:17:41;101649.06;;;28.79;64.32
51617;BME280;37697;52.588;13.394;2023-08-20T11:22:47;101646.45;;;28.84;63.26
51617;BME280;37697;52.588;13.394;2023-08-20T11:27:52;101646.75;;;28.99;63.16
51617;BME280;37697;52.588;13.394;2023-08-20T11:32:58;101642.97;;;29.12;62.78
51617;BME280;37697;52.588;13.394;2023-08-20T11:38:05;101642.42;;;29.14;61.50
51617;BME280;37697;52.588;13.394;2023-08-20T11:43:11;101644.84;;;29.18;62.04
51617;BME280;37697;52.588;13.394;2023-08-20T11:48:19;101646.91;;;29.28;61.41
51617;BME280;37697;52.588;13.394;2023-08-20T11:53:24;101644.73;;;29.46;60.71
51617;BME280;37697;52.588;13.394;2023-08-20T11:58:33;101639.92;;;29.53;59.84
51617;BME280;37697;52.588;13.394;2023-08-20T12:03:39;101641.89;;;29.64;59.28
51617;BME280;37697;52.588;13.394;2023-08-20T12:08:45;101640.87;;;29.89;59.27
51617;BME280;37697;52.588;13.394;2023-08-20T12:13:50;101635.55;;;30.16;58.81
51617;BME280;37697;52.588;13.394;2023-08-20T12:18:55;101633.80;;;30.24;57.81
51617;BME280;37697;52.588;13.394;2023-08-20T12:24:01;101635.34;;;30.24;57.24
51617;BME280;37697;52.588;13.394;2023-08-20T12:29:06;101627.48;;;30.32;56.30
51617;BME280;37697;52.588;13.394;2023-08-20T12:34:12;101626.88;;;30.26;55.30
51617;BME280;37697;52.588;13.394;2023-08-20T12:39:17;101622.23;;;30.30;54.96
51617;BME280;37697;52.588;13.394;2023-08-20T12:44:23;101621.30;;;30.35;54.12
51617;BME280;37697;52.588;13.394;2023-08-20T12:49:29;101619.64;;;30.39;54.41
51617;BME280;37697;52.588;13.394;2023-08-20T12:54:34;101621.08;;;30.51;53.21
51617;BME280;37697;52.588;13.394;2023-08-20T12:59:40;101624.06;;;30.33;52.05
51617;BME280;37697;52.588;13.394;2023-08-20T13:04:46;101615.88;;;30.31;51.85
51617;BME280;37697;52.588;13.394;2023-08-20T13:09:52;101615.45;;;30.35;51.58
51617;BME280;37697;52.588;13.394;2023-08-20T13:14:58;101614.59;;;30.42;50.60
51617;BME280;37697;52.588;13.394;2023-08-20T13:20:05;101622.29;;;30.31;49.77
51617;BME280;37697;52.588;13.394;2023-08-20T13:25:10;101623.61;;;30.26;49.37
51617;BME280;37697;52.588;13.394;2023-08-20T13:30:16;101624.41;;;30.19;47.97
51617;BME280;37697;52.588;13.394;2023-08-20T13:35:23;101624.68;;;30.16;47.72
51617;BME280;37697;52.588;13.394;2023-08-20T13:40:28;101616.41;;;30.17;46.96
51617;BME280;37697;52.588;13.394;2023-08-20T13:45:33;101615.45;;;30.14;46.38
51617;BME280;37697;52.588;13.394;2023-08-20T13:50:39;101618.23;;;30.02;45.81
51617;BME280;37697;52.588;13.394;2023-08-20T13:55:44;101613.66;;;29.68;44.33
51617;BME280;37697;52.588;13.394;2023-08-20T14:00:50;101618.16;;;29.41;44.54
51617;BME280;37697;52.588;13.394;2023-08-20T14:05:55;101617.95;;;29.35;44.79
51617;BME280;37697;52.588;13.394;2023-08-20T14:11:00;101613.81;;;29.19;45.35
51617;BME280;37697;52.588;13.394;2023-08-20T14:16:06;101614.95;;;29.12;45.75
51617;BME280;37697;52.588;13.394;2023-08-20T14:21:12;101611.10;;;29.03;45.12
51617;BME280;37697;52.588;13.394;2023-08-20T14:26:19;101610.02;;;28.80;44.67
51617;BME280;37697;52.588;13.394;2023-08-20T14:31:24;101609.64;;;28.70;45.10
51617;BME280;37697;52.588;13.394;2023-08-20T14:36:29;101606.80;;;28.72;45.92
51617;BME280;37697;52.588;13.394;2023-08-20T14:41:35;101602.84;;;28.72;46.62
51617;BME280;37697;52.588;13.394;2023-08-20T14:46:40;101595.63;;;28.75;47.49
51617;BME280;37697;52.588;13.394;2023-08-20T14:51:45;101593.42;;;28.84;47.63
51617;BME280;37697;52.588;13.394;2023-08-20T14:56:51;101590.04;;;28.80;47.82
51617;BME280;37697;52.588;13.394;2023-08-20T15:01:56;101588.27;;;28.74;47.72
51617;BME280;37697;52.588;13.394;2023-08-20T15:07:01;101590.64;;;28.59;47.24
51617;BME280;37697;52.588;13.394;2023-08-20T15:12:09;101594.86;;;28.54;47.75
51617;BME280;37697;52.588;13.394;2023-08-20T15:17:14;101588.79;;;28.54;47.82
51617;BME280;37697;52.588;13.394;2023-08-20T15:22:19;101589.27;;;28.51;47.72
51617;BME280;37697;52.588;13.394;2023-08-20T15:27:25;101584.09;;;28.37;47.57
51617;BME280;37697;52.588;13.394;2023-08-20T15:32:31;101579.34;;;28.14;47.57
51617;BME280;37697;52.588;13.394;2023-08-20T15:37:36;101577.88;;;27.99;48.67
51617;BME280;37697;52.588;13.394;2023-08-20T15:42:42;101576.98;;;27.95;49.12
51617;BME280;37697;52.588;13.394;2023-08-20T15:47:47;101576.87;;;27.84;49.84
51617;BME280;37697;52.588;13.394;2023-08-20T15:52:53;101577.98;;;27.73;49.63
51617;BME280;37697;52.588;13.394;2023-08-20T15:57:59;101573.45;;;27.59;49.67
51617;BME280;37697;52.588;13.394;2023-08-20T16:03:05;101574.48;;;27.57;50.30
51617;BME280;37697;52.588;13.394;2023-08-20T16:08:10;101570.12;;;27.55;50.21
51617;BME280;37697;52.588;13.394;2023-08-20T16:13:16;101569.14;;;27.50;50.08
51617;BME280;37697;52.588;13.394;2023-08-20T16:18:21;101572.34;;;27.43;49.71
51617;BME280;37697;52.588;13.394;2023-08-20T16:23:27;101567.81;;;27.39;49.13
51617;BME280;37697;52.588;13.394;2023-08-20T16:28:32;101569.10;;;27.39;49.40
51617;BME280;37697;52.588;13.394;2023-08-20T16:33:38;101573.05;;;27.34;49.73
51617;BME280;37697;52.588;13.394;2023-08-20T16:38:43;101574.85;;;27.24;49.83
51617;BME280;37697;52.588;13.394;2023-08-20T16:43:49;101572.79;;;27.15;49.19
51617;BME280;37697;52.588;13.394;2023-08-20T16:48:54;101571.39;;;27.08;49.32
51617;BME280;37697;52.588;13.394;2023-08-20T16:54:00;101578.36;;;26.96;49.61
51617;BME280;37697;52.588;13.394;2023-08-20T16:59:05;101578.73;;;26.85;49.96
51617;BME280;37697;52.588;13.394;2023-08-20T17:04:10;101583.41;;;26.72;50.14
51617;BME280;37697;52.588;13.394;2023-08-20T17:09:15;101582.05;;;26.63;50.01
51617;BME280;37697;52.588;13.394;2023-08-20T17:14:21;101579.90;;;26.56;50.47
51617;BME280;37697;52.588;13.394;2023-08-20T17:19:27;101585.85;;;26.43;50.58
51617;BME280;37697;52.588;13.394;2023-08-20T17:24:32;101589.14;;;26.30;50.90
51617;BME280;37697;52.588;13.394;2023-08-20T17:29:37;101593.21;;;26.15;51.66
51617;BME280;37697;52.588;13.394;2023-08-20T17:34:43;101591.45;;;25.99;51.95
51617;BME280;37697;52.588;13.394;2023-08-20T17:39:48;101589.29;;;25.84;52.46
51617;BME280;37697;52.588;13.394;2023-08-20T17:44:54;101592.37;;;25.70;53.18
51617;BME280;37697;52.588;13.394;2023-08-20T17:49:59;101597.73;;;25.58;53.91
51617;BME280;37697;52.588;13.394;2023-08-20T17:55:06;101601.08;;;25.42;54.78
51617;BME280;37697;52.588;13.394;2023-08-20T18:00:12;101599.62;;;25.27;55.49
51617;BME280;37697;52.588;13.394;2023-08-20T18:05:18;101599.19;;;25.14;55.85
51617;BME280;37697;52.588;13.394;2023-08-20T18:10:24;101603.66;;;24.99;56.29
51617;BME280;37697;52.588;13.394;2023-08-20T18:15:29;101611.39;;;24.82;57.16
51617;BME280;37697;52.588;13.394;2023-08-20T18:20:35;101613.23;;;24.64;58.12
51617;BME280;37697;52.588;13.394;2023-08-20T18:25:40;101617.33;;;24.50;58.71
51617;BME280;37697;52.588;13.394;2023-08-20T18:30:49;101620.73;;;24.36;59.11
51617;BME280;37697;52.588;13.394;2023-08-20T18:36:00;101629.88;;;24.21;59.89
51617;BME280;37697;52.588;13.394;2023-08-20T18:41:07;101640.70;;;24.06;60.47
51617;BME280;37697;52.588;13.394;2023-08-20T18:46:12;101645.69;;;23.92;60.93
51617;BME280;37697;52.588;13.394;2023-08-20T18:51:21;101653.97;;;23.80;61.08
51617;BME280;37697;52.588;13.394;2023-08-20T18:56:26;101663.98;;;23.67;61.38
51617;BME280;37697;52.588;13.394;2023-08-20T19:01:32;101674.92;;;23.56;62.06
51617;BME280;37697;52.588;13.394;2023-08-20T19:06:37;101677.65;;;23.45;62.59
51617;BME280;37697;52.588;13.394;2023-08-20T19:11:42;101680.23;;;23.34;63.36
51617;BME280;37697;52.588;13.394;2023-08-20T19:16:49;101681.34;;;23.19;63.82
51617;BME280;37697;52.588;13.394;2023-08-20T19:21:54;101682.13;;;23.14;64.39
51617;BME280;37697;52.588;13.394;2023-08-20T19:26:59;101678.81;;;23.10;64.74
51617;BME280;37697;52.588;13.394;2023-08-20T19:32:05;101676.84;;;23.04;65.00
51617;BME280;37697;52.588;13.394;2023-08-20T19:37:11;101682.39;;;22.99;65.50
51617;BME280;37697;52.588;13.394;2023-08-20T19:42:16;101683.36;;;22.92;65.74
51617;BME280;37697;52.588;13.394;2023-08-20T19:47:21;101682.86;;;22.81;66.28
51617;BME280;37697;52.588;13.394;2023-08-20T19:52:27;101675.64;;;22.71;66.57
51617;BME280;37697;52.588;13.394;2023-08-20T19:57:32;101689.23;;;22.59;67.17
51617;BME280;37697;52.588;13.394;2023-08-20T20:02:38;101693.77;;;22.48;67.76
51617;BME280;37697;52.588;13.394;2023-08-20T20:07:44;101703.29;;;22.38;68.59
51617;BME280;37697;52.588;13.394;2023-08-20T20:12:50;101702.95;;;22.30;68.99
51617;BME280;37697;52.588;13.394;2023-08-20T20:17:55;101698.92;;;22.27;69.20
51617;BME280;37697;52.588;13.394;2023-08-20T20:23:01;101691.58;;;22.24;69.44
51617;BME280;37697;52.588;13.394;2023-08-20T20:28:07;101690.30;;;22.12;69.94
51617;BME280;37697;52.588;13.394;2023-08-20T20:33:12;101694.19;;;22.02;70.35
51617;BME280;37697;52.588;13.394;2023-08-20T20:38:18;101697.96;;;21.84;70.86
51617;BME280;37697;52.588;13.394;2023-08-20T20:43:23;101703.86;;;21.77;71.21
51617;BME280;37697;52.588;13.394;2023-08-20T20:48:30;101706.10;;;21.72;71.72
51617;BME280;37697;52.588;13.394;2023-08-20T20:53:35;101699.55;;;21.72;71.94
51617;BME280;37697;52.588;13.394;2023-08-20T20:58:40;101689.44;;;21.69;71.65
51617;BME280;37697;52.588;13.394;2023-08-20T21:03:46;101694.22;;;21.65;71.41
51617;BME280;37697;52.588;13.394;2023-08-20T21:08:51;101692.54;;;21.65;70.92
51617;BME280;37697;52.588;13.394;2023-08-20T21:13:57;101686.06;;;21.66;70.38
51617;BME280;37697;52.588;13.394;2023-08-20T21:19:02;101685.95;;;21.67;70.22
51617;BME280;37697;52.588;13.394;2023-08-20T21:24:08;101692.63;;;21.68;70.48
51617;BME280;37697;52.588;13.394;2023-08-20T21:29:13;101696.81;;;21.66;70.82
51617;BME280;37697;52.588;13.394;2023-08-20T21:34:19;101704.14;;;21.65;71.40
51617;BME280;37697;52.588;13.394;2023-08-20T21:39:24;101706.85;;;21.64;71.90
51617;BME280;37697;52.588;13.394;2023-08-20T21:44:30;101711.95;;;21.63;72.58
51617;BME280;37697;52.588;13.394;2023-08-20T21:49:35;101720.60;;;21.63;73.19
51617;BME280;37697;52.588;13.394;2023-08-20T21:54:41;101725.77;;;21.59;73.83
51617;BME280;37697;52.588;13.394;2023-08-20T21:59:48;101727.97;;;21.52;74.48
51617;BME280;37697;52.588;13.394;2023-08-20T22:05:13;101727.13;;;21.51;75.48
51617;BME280;37697;52.588;13.394;2023-08-20T22:10:20;101737.08;;;21.52;76.20
51617;BME280;37697;52.588;13.394;2023-08-20T22:15:26;101733.84;;;21.54;76.66
51617;BME280;37697;52.588;13.394;2023-08-20T22:20:31;101730.98;;;21.54;77.87
51617;BME280;37697;52.588;13.394;2023-08-20T22:25:37;101734.70;;;21.53;78.76
51617;BME280;37697;52.588;13.394;2023-08-20T22:30:43;101744.89;;;21.53;79.55
51617;BME280;37697;52.588;13.394;2023-08-20T22:35:51;101745.26;;;21.52;80.38
51617;BME280;37697;52.588;13.394;2023-08-20T22:40:57;101750.77;;;21.51;80.74
51617;BME280;37697;52.588;13.394;2023-08-20T22:46:03;101747.89;;;21.52;81.05
51617;BME280;37697;52.588;13.394;2023-08-20T22:51:08;101738.39;;;21.50;81.50
51617;BME280;37697;52.588;13.394;2023-08-20T22:56:14;101739.73;;;21.45;81.74
51617;BME280;37697;52.588;13.394;2023-08-20T23:01:21;101747.48;;;21.39;82.21
51617;BME280;37697;52.588;13.394;2023-08-20T23:06:27;101742.36;;;21.37;82.49
51617;BME280;37697;52.588;13.394;2023-08-20T23:11:32;101729.70;;;21.32;82.93
51617;BME280;37697;52.588;13.394;2023-08-20T23:16:38;101728.06;;;21.25;83.26
51617;BME280;37697;52.588;13.394;2023-08-20T23:21:43;101722.87;;;21.20;83.51
51617;BME280;37697;52.588;13.394;2023-08-20T23:26:49;101727.64;;;21.16;83.86
51617;BME280;37697;52.588;13.394;2023-08-20T23:31:54;101726.48;;;21.11;84.03
51617;BME280;37697;52.588;13.394;2023-08-20T23:36:59;101724.66;;;21.06;84.35
51617;BME280;37697;52.588;13.394;2023-08-20T23:42:06;101724.70;;;20.99;84.65
51617;BME280;37697;52.588;13.394;2023-08-20T23:47:11;101722.45;;;20.96;84.92
51617;BME280;37697;52.588;13.394;2023-08-20T23:52:17;101721.44;;;20.90;85.14
51617;BME280;37697;52.588;13.394;2023-08-20T23:57:22;101718.34;;;20.86;85.37
